sensor_id;sensor_type;location;lat;lon;timestamp;pressure;altitude;pressure_sealevel;temperature;humidity
70921;BME280;58572;48.110;19.838;2023-08-20T00:02:01;98197.03;;;22.87;76.96
70921;BME280;58572;48.110;19.838;2023-08-20T00:04:31;98191.03;;;22.85;76.98
70921;BME280;58572;48.110;19.838;2023-08-20T00:07:00;98193.13;;;22.76;77.23
70921;BME280;58572;48.110;19.838;2023-08-20T00:09:28;98187.03;;;22.71;77.66
70921;BME280;58572;48.110;19.838;2023-08-20T00:11:56;98190.31;;;22.88;76.93
70921;BME280;58572;48.110;19.838;2023-08-20T00:14:53;98194.38;;;23.07;75.72
70921;BME280;58572;48.110;19.838;2023-08-20T00:17:22;98184.69;;;22.85;76.74
70921;BME280;58572;48.110;19.838;2023-08-20T00:19:54;98185.69;;;22.92;76.81
70921;BME280;58572;48.110;19.838;2023-08-20T00:22:23;98185.06;;;22.71;77.37
70921;BME280;58572;48.110;19.838;2023-08-20T00:24:52;98188.75;;;22.32;79.60
70921;BME280;58572;48.110;19.838;2023-08-20T00:27:21;98181.94;;;22.73;77.63
70921;BME280;58572;48.110;19.838;2023-08-20T00:29:49;98181.75;;;22.93;76.16
70921;BME280;58572;48.110;19.838;2023-08-20T00:32:16;98174.97;;;23.07;75.73
70921;BME280;58572;48.110;19.838;2023-08-20T00:34:44;98173.16;;;22.99;75.79
70921;BME280;58572;48.110;19.838;2023-08-20T00:37:12;98152.50;;;22.52;77.61
70921;BME280;58572;48.110;19.838;2023-08-20T00:39:40;98177.38;;;22.92;76.27
70921;BME280;58572;48.110;19.838;2023-08-20T00:42:07;98166.47;;;23.00;75.31
70921;BME280;58572;48.110;19.838;2023-08-20T00:44:34;98172.28;;;22.95;75.98
70921;BME280;58572;48.110;19.838;2023-08-20T00:47:02;98171.97;;;22.84;76.46
70921;BME280;58572;48.110;19.838;2023-08-20T00:49:31;98145.47;;;22.71;76.31
70921;BME280;58572;48.110;19.838;2023-08-20T00:51:59;98170.97;;;22.76;76.77
70921;BME280;58572;48.110;19.838;2023-08-20T00:54:29;98168.97;;;22.61;77.45
70921;BME280;58572;48.110;19.838;2023-08-20T00:56:56;98169.78;;;22.18;80.04
70921;BME280;58572;48.110;19.838;2023-08-20T00:59:24;98159.50;;;22.62;77.67
70921;BME280;58572;48.110;19.838;2023-08-20T01:01:51;98171.16;;;22.83;76.25
70921;BME280;58572;48.110;19.838;2023-08-20T01:04:18;98172.78;;;22.84;76.20
70921;BME280;58572;48.110;19.838;2023-08-20T01:06:46;98177.81;;;22.95;75.49
70921;BME280;58572;48.110;19.838;2023-08-20T01:09:23;98167.00;;;22.61;77.39
70921;BME280;58572;48.110;19.838;2023-08-20T01:12:00;98171.63;;;21.49;82.95
70921;BME280;58572;48.110;19.838;2023-08-20T01:14:28;98163.66;;;21.60;83.18
70921;BME280;58572;48.110;19.838;2023-08-20T01:16:55;98163.66;;;22.40;78.42
70921;BME280;58572;48.110;19.838;2023-08-20T01:19:22;98163.88;;;22.63;77.24
70921;BME280;58572;48.110;19.838;2023-08-20T01:22:02;98161.81;;;22.60;77.62
70921;BME280;58572;48.110;19.838;2023-08-20T01:24:48;98165.13;;;22.50;77.83
70921;BME280;58572;48.110;19.838;2023-08-20T01:27:35;98169.97;;;22.69;76.73
70921;BME280;58572;48.110;19.838;2023-08-20T01:30:09;98172.56;;;22.77;76.17
70921;BME280;58572;48.110;19.838;2023-08-20T01:32:37;98171.63;;;22.85;75.66
70921;BME280;58572;48.110;19.838;2023-08-20T01:35:08;98170.06;;;22.72;76.17
70921;BME280;58572;48.110;19.838;2023-08-20T01:37:38;98170.31;;;22.67;76.49
70921;BME280;58572;48.110;19.838;2023-08-20T01:40:07;98163.34;;;22.57;76.89
70921;BME280;58572;48.110;19.838;2023-08-20T01:42:36;98166.75;;;22.67;76.49
70921;BME280;58572;48.110;19.838;2023-08-20T01:45:04;98162.19;;;22.74;75.72
70921;BME280;58572;48.110;19.838;2023-08-20T01:47:33;98144.28;;;22.56;75.78
70921;BME280;58572;48.110;19.838;2023-08-20T01:50:01;98166.13;;;22.73;75.46
70921;BME280;58572;48.110;19.838;2023-08-20T01:52:29;98176.91;;;22.47;77.15
70921;BME280;58572;48.110;19.838;2023-08-20T01:54:56;98164.41;;;22.53;77.04
70921;BME280;58572;48.110;19.838;2023-08-20T01:57:23;98161.09;;;22.63;76.30
70921;BME280;58572;48.110;19.838;2023-08-20T01:59:50;98161.47;;;22.77;75.61
70921;BME280;58572;48.110;19.838;2023-08-20T02:02:17;98163.97;;;22.67;75.77
70921;BME280;58572;48.110;19.838;2023-08-20T02:04:46;98162.00;;;22.67;75.96
70921;BME280;58572;48.110;19.838;2023-08-20T02:07:13;98159.75;;;22.57;75.90
70921;BME280;58572;48.110;19.838;2023-08-20T02:09:40;98165.50;;;22.64;76.02
70921;BME280;58572;48.110;19.838;2023-08-20T02:12:08;98172.50;;;21.90;78.46
70921;BME280;58572;48.110;19.838;2023-08-20T02:14:35;98171.63;;;22.42;76.92
70921;BME280;58572;48.110;19.838;2023-08-20T02:17:02;98174.69;;;22.52;75.92
70921;BME280;58572;48.110;19.838;2023-08-20T02:19:30;98170.28;;;22.51;76.34
70921;BME280;58572;48.110;19.838;2023-08-20T02:21:59;98163.88;;;22.19;77.59
70921;BME280;58572;48.110;19.838;2023-08-20T02:24:27;98168.75;;;21.58;80.08
70921;BME280;58572;48.110;19.838;2023-08-20T02:26:59;98167.03;;;21.41;82.67
70921;BME280;58572;48.110;19.838;2023-08-20T02:29:29;98160.06;;;21.72;80.84
70921;BME280;58572;48.110;19.838;2023-08-20T02:31:56;98155.25;;;22.80;75.03
70921;BME280;58572;48.110;19.838;2023-08-20T02:34:23;98153.00;;;22.86;74.62
70921;BME280;58572;48.110;19.838;2023-08-20T02:36:50;98154.84;;;22.94;74.13
70921;BME280;58572;48.110;19.838;2023-08-20T02:39:20;98159.47;;;22.90;74.16
70921;BME280;58572;48.110;19.838;2023-08-20T02:41:47;98155.94;;;22.77;74.76
70921;BME280;58572;48.110;19.838;2023-08-20T02:44:14;98157.34;;;22.55;76.13
70921;BME280;58572;48.110;19.838;2023-08-20T02:46:41;98151.97;;;22.47;76.52
70921;BME280;58572;48.110;19.838;2023-08-20T02:49:10;98153.91;;;22.30;76.80
70921;BME280;58572;48.110;19.838;2023-08-20T02:51:37;98154.59;;;22.71;74.78
70921;BME280;58572;48.110;19.838;2023-08-20T02:54:05;98150.75;;;22.76;74.57
70921;BME280;58572;48.110;19.838;2023-08-20T02:56:33;98156.66;;;22.74;74.52
70921;BME280;58572;48.110;19.838;2023-08-20T02:59:01;98089.75;;;22.01;75.78
70921;BME280;58572;48.110;19.838;2023-08-20T03:01:28;98155.03;;;22.73;75.02
70921;BME280;58572;48.110;19.838;2023-08-20T03:03:55;98151.00;;;22.71;74.88
70921;BME280;58572;48.110;19.838;2023-08-20T03:06:22;98146.47;;;22.78;74.43
70921;BME280;58572;48.110;19.838;2023-08-20T03:08:49;98161.53;;;21.93;79.03
70921;BME280;58572;48.110;19.838;2023-08-20T03:11:16;98162.56;;;21.37;84.65
70921;BME280;58572;48.110;19.838;2023-08-20T03:13:45;98167.97;;;21.45;86.55
70921;BME280;58572;48.110;19.838;2023-08-20T03:16:12;98173.44;;;22.50;76.71
70921;BME280;58572;48.110;19.838;2023-08-20T03:18:39;98157.19;;;22.64;75.65
70921;BME280;58572;48.110;19.838;2023-08-20T03:21:06;98163.81;;;22.75;74.95
70921;BME280;58572;48.110;19.838;2023-08-20T03:23:33;98174.16;;;21.54;82.65
70921;BME280;58572;48.110;19.838;2023-08-20T03:26:00;98173.63;;;21.37;86.67
70921;BME280;58572;48.110;19.838;2023-08-20T03:28:27;98166.19;;;22.45;77.39
70921;BME280;58572;48.110;19.838;2023-08-20T03:30:59;98165.94;;;22.66;75.77
70921;BME280;58572;48.110;19.838;2023-08-20T03:33:27;98167.91;;;21.70;86.42
70921;BME280;58572;48.110;19.838;2023-08-20T03:35:54;98112.84;;;21.52;86.32
70921;BME280;58572;48.110;19.838;2023-08-20T03:38:22;98161.63;;;22.53;79.62
70921;BME280;58572;48.110;19.838;2023-08-20T03:40:49;98164.31;;;22.65;77.26
70921;BME280;58572;48.110;19.838;2023-08-20T03:43:17;98167.47;;;22.79;75.74
70921;BME280;58572;48.110;19.838;2023-08-20T03:45:44;98177.53;;;22.56;76.82
70921;BME280;58572;48.110;19.838;2023-08-20T03:48:12;98163.41;;;22.89;74.81
70921;BME280;58572;48.110;19.838;2023-08-20T03:50:39;98172.78;;;22.84;74.58
70921;BME280;58572;48.110;19.838;2023-08-20T03:53:06;98169.56;;;22.82;74.84
70921;BME280;58572;48.110;19.838;2023-08-20T03:55:34;98171.66;;;22.73;75.24
70921;BME280;58572;48.110;19.838;2023-08-20T03:58:01;98167.09;;;22.65;75.50
70921;BME280;58572;48.110;19.838;2023-08-20T04:00:28;98168.34;;;22.68;75.21
70921;BME280;58572;48.110;19.838;2023-08-20T04:02:55;98180.25;;;22.68;75.23
70921;BME280;58572;48.110;19.838;2023-08-20T04:05:23;98189.09;;;22.58;75.58
70921;BME280;58572;48.110;19.838;2023-08-20T04:07:51;98188.28;;;22.57;75.53
70921;BME280;58572;48.110;19.838;2023-08-20T04:10:18;98189.81;;;21.87;79.03
70921;BME280;58572;48.110;19.838;2023-08-20T04:12:45;98185.22;;;21.54;81.22
70921;BME280;58572;48.110;19.838;2023-08-20T04:15:12;98163.97;;;22.23;76.76
70921;BME280;58572;48.110;19.838;2023-08-20T04:17:39;98185.47;;;22.42;76.16
70921;BME280;58572;48.110;19.838;2023-08-20T04:20:07;98186.81;;;22.48;75.67
70921;BME280;58572;48.110;19.838;2023-08-20T04:22:36;98185.19;;;21.91;79.31
70921;BME280;58572;48.110;19.838;2023-08-20T04:25:05;98187.09;;;20.68;87.03
70921;BME280;58572;48.110;19.838;2023-08-20T04:27:32;98190.75;;;21.18;87.51
70921;BME280;58572;48.110;19.838;2023-08-20T04:29:59;98190.47;;;21.96;80.75
70921;BME280;58572;48.110;19.838;2023-08-20T04:32:26;98184.97;;;22.52;77.11
70921;BME280;58572;48.110;19.838;2023-08-20T04:34:54;98190.25;;;22.73;75.34
70921;BME280;58572;48.110;19.838;2023-08-20T04:37:21;98187.13;;;22.74;74.91
70921;BME280;58572;48.110;19.838;2023-08-20T04:39:50;98190.22;;;22.01;82.10
70921;BME280;58572;48.110;19.838;2023-08-20T04:42:17;98193.22;;;22.36;77.50
70921;BME280;58572;48.110;19.838;2023-08-20T04:44:44;98193.13;;;22.76;75.27
70921;BME280;58572;48.110;19.838;2023-08-20T04:47:11;98194.28;;;22.32;78.49
70921;BME280;58572;48.110;19.838;2023-08-20T04:49:38;98193.31;;;21.47;86.07
70921;BME280;58572;48.110;19.838;2023-08-20T04:52:05;98201.28;;;21.24;91.92
70921;BME280;58572;48.110;19.838;2023-08-20T04:54:32;98197.66;;;21.60;91.15
70921;BME280;58572;48.110;19.838;2023-08-20T04:57:01;98198.03;;;22.23;87.68
70921;BME280;58572;48.110;19.838;2023-08-20T04:59:29;98201.06;;;22.90;78.45
70921;BME280;58572;48.110;19.838;2023-08-20T05:01:56;98198.50;;;22.69;81.19
70921;BME280;58572;48.110;19.838;2023-08-20T05:04:23;98204.56;;;21.91;89.13
70921;BME280;58572;48.110;19.838;2023-08-20T05:06:50;98201.19;;;21.97;89.88
70921;BME280;58572;48.110;19.838;2023-08-20T05:09:17;98197.16;;;22.35;85.93
70921;BME280;58572;48.110;19.838;2023-08-20T05:11:44;98198.75;;;23.08;79.83
70921;BME280;58572;48.110;19.838;2023-08-20T05:14:13;98206.72;;;23.25;77.09
70921;BME280;58572;48.110;19.838;2023-08-20T05:16:40;98198.84;;;23.27;76.51
70921;BME280;58572;48.110;19.838;2023-08-20T05:19:07;98185.97;;;22.75;81.93
70921;BME280;58572;48.110;19.838;2023-08-20T05:21:34;98193.69;;;22.10;87.90
70921;BME280;58572;48.110;19.838;2023-08-20T05:24:01;98203.03;;;22.06;89.84
70921;BME280;58572;48.110;19.838;2023-08-20T05:26:29;98131.91;;;21.82;90.26
70921;BME280;58572;48.110;19.838;2023-08-20T05:28:56;98192.34;;;22.32;89.52
70921;BME280;58572;48.110;19.838;2023-08-20T05:31:24;98194.38;;;22.63;85.52
70921;BME280;58572;48.110;19.838;2023-08-20T05:33:52;98169.94;;;23.28;79.52
70921;BME280;58572;48.110;19.838;2023-08-20T05:36:19;98204.09;;;23.64;78.59
70921;BME280;58572;48.110;19.838;2023-08-20T05:38:46;98199.91;;;23.89;78.09
70921;BME280;58572;48.110;19.838;2023-08-20T05:41:13;98203.53;;;23.74;75.56
70921;BME280;58572;48.110;19.838;2023-08-20T05:43:40;98210.69;;;23.75;79.50
70921;BME280;58572;48.110;19.838;2023-08-20T05:46:07;98210.41;;;22.42;88.96
70921;BME280;58572;48.110;19.838;2023-08-20T05:48:36;98210.06;;;22.43;89.52
70921;BME280;58572;48.110;19.838;2023-08-20T05:51:03;98214.34;;;22.41;89.75
70921;BME280;58572;48.110;19.838;2023-08-20T05:53:30;98212.09;;;22.74;87.50
70921;BME280;58572;48.110;19.838;2023-08-20T05:55:57;98218.53;;;23.22;84.36
70921;BME280;58572;48.110;19.838;2023-08-20T05:58:24;98213.03;;;23.73;81.19
70921;BME280;58572;48.110;19.838;2023-08-20T06:00:51;98218.59;;;23.41;82.78
70921;BME280;58572;48.110;19.838;2023-08-20T06:03:19;98221.75;;;23.24;83.52
70921;BME280;58572;48.110;19.838;2023-08-20T06:05:47;98216.81;;;23.33;83.93
70921;BME280;58572;48.110;19.838;2023-08-20T06:08:14;98213.66;;;23.66;81.94
70921;BME280;58572;48.110;19.838;2023-08-20T06:10:42;98222.19;;;23.26;83.91
70921;BME280;58572;48.110;19.838;2023-08-20T06:13:09;98204.66;;;22.90;85.04
70921;BME280;58572;48.110;19.838;2023-08-20T06:15:37;98189.09;;;22.74;86.82
70921;BME280;58572;48.110;19.838;2023-08-20T06:18:03;98211.28;;;23.33;83.81
70921;BME280;58572;48.110;19.838;2023-08-20T06:20:31;98211.63;;;23.16;85.16
70921;BME280;58572;48.110;19.838;2023-08-20T06:22:59;98211.09;;;23.10;85.74
70921;BME280;58572;48.110;19.838;2023-08-20T06:25:27;98215.03;;;23.25;84.88
70921;BME280;58572;48.110;19.838;2023-08-20T06:27:54;98213.88;;;23.26;85.18
70921;BME280;58572;48.110;19.838;2023-08-20T06:30:21;98222.78;;;23.51;83.23
70921;BME280;58572;48.110;19.838;2023-08-20T06:32:48;98213.78;;;23.38;83.72
70921;BME280;58572;48.110;19.838;2023-08-20T06:35:15;98221.72;;;23.40;84.82
70921;BME280;58572;48.110;19.838;2023-08-20T06:37:42;98216.28;;;23.12;85.14
70921;BME280;58572;48.110;19.838;2023-08-20T06:40:11;98222.09;;;23.22;86.04
70921;BME280;58572;48.110;19.838;2023-08-20T06:42:39;98215.94;;;23.29;85.81
70921;BME280;58572;48.110;19.838;2023-08-20T06:45:07;98220.75;;;23.48;83.61
70921;BME280;58572;48.110;19.838;2023-08-20T06:47:34;98215.38;;;23.39;85.01
70921;BME280;58572;48.110;19.838;2023-08-20T06:50:02;98229.34;;;23.59;83.87
70921;BME280;58572;48.110;19.838;2023-08-20T06:52:29;98231.03;;;23.47;84.18
70921;BME280;58572;48.110;19.838;2023-08-20T06:54:57;98232.84;;;23.40;85.76
70921;BME280;58572;48.110;19.838;2023-08-20T06:57:28;98208.78;;;23.28;85.99
70921;BME280;58572;48.110;19.838;2023-08-20T06:59:55;98233.91;;;23.51;85.92
70921;BME280;58572;48.110;19.838;2023-08-20T07:02:22;98244.28;;;23.54;86.04
70921;BME280;58572;48.110;19.838;2023-08-20T07:04:49;98246.25;;;23.53;86.03
70921;BME280;58572;48.110;19.838;2023-08-20T07:07:16;98240.06;;;23.76;85.68
70921;BME280;58572;48.110;19.838;2023-08-20T07:09:43;98235.41;;;23.80;85.60
70921;BME280;58572;48.110;19.838;2023-08-20T07:12:11;98241.94;;;23.72;87.30
70921;BME280;58572;48.110;19.838;2023-08-20T07:14:39;98233.41;;;23.96;86.31
70921;BME280;58572;48.110;19.838;2023-08-20T07:17:06;98228.75;;;23.84;87.26
70921;BME280;58572;48.110;19.838;2023-08-20T07:19:33;98236.88;;;24.09;86.11
70921;BME280;58572;48.110;19.838;2023-08-20T07:22:01;98241.56;;;24.24;84.95
70921;BME280;58572;48.110;19.838;2023-08-20T07:24:28;98237.84;;;24.55;83.23
70921;BME280;58572;48.110;19.838;2023-08-20T07:27:00;98233.75;;;24.49;83.29
70921;BME280;58572;48.110;19.838;2023-08-20T07:29:29;98236.69;;;24.56;82.31
70921;BME280;58572;48.110;19.838;2023-08-20T07:31:58;98229.56;;;24.59;82.99
70921;BME280;58572;48.110;19.838;2023-08-20T07:34:28;98235.66;;;24.64;82.01
70921;BME280;58572;48.110;19.838;2023-08-20T07:36:56;98229.31;;;24.87;80.84
70921;BME280;58572;48.110;19.838;2023-08-20T07:39:23;98236.66;;;24.75;81.34
70921;BME280;58572;48.110;19.838;2023-08-20T07:41:50;98234.94;;;24.90;81.52
70921;BME280;58572;48.110;19.838;2023-08-20T07:44:17;98234.63;;;24.95;80.41
70921;BME280;58572;48.110;19.838;2023-08-20T07:46:44;98233.16;;;24.98;80.61
70921;BME280;58572;48.110;19.838;2023-08-20T07:49:13;98235.25;;;25.27;80.03
70921;BME280;58572;48.110;19.838;2023-08-20T07:51:40;98237.59;;;25.25;79.65
70921;BME280;58572;48.110;19.838;2023-08-20T07:54:07;98237.31;;;25.30;80.11
70921;BME280;58572;48.110;19.838;2023-08-20T07:56:34;98236.94;;;25.32;80.02
70921;BME280;58572;48.110;19.838;2023-08-20T07:59:01;98237.41;;;25.37;79.26
70921;BME280;58572;48.110;19.838;2023-08-20T08:01:29;98234.38;;;25.69;78.40
70921;BME280;58572;48.110;19.838;2023-08-20T08:03:56;98241.53;;;25.70;78.17
70921;BME280;58572;48.110;19.838;2023-08-20T08:06:25;98248.06;;;25.81;77.18
70921;BME280;58572;48.110;19.838;2023-08-20T08:08:53;98248.19;;;26.45;74.60
70921;BME280;58572;48.110;19.838;2023-08-20T08:11:20;98248.06;;;26.34;73.74
70921;BME280;58572;48.110;19.838;2023-08-20T08:13:47;98249.75;;;26.42;74.65
70921;BME280;58572;48.110;19.838;2023-08-20T08:16:14;98252.31;;;26.54;75.79
70921;BME280;58572;48.110;19.838;2023-08-20T08:18:42;98249.13;;;27.26;70.84
70921;BME280;58572;48.110;19.838;2023-08-20T08:21:09;98254.13;;;27.51;69.53
70921;BME280;58572;48.110;19.838;2023-08-20T08:23:38;98245.22;;;27.34;71.15
70921;BME280;58572;48.110;19.838;2023-08-20T08:26:05;98250.25;;;27.18;72.82
70921;BME280;58572;48.110;19.838;2023-08-20T08:28:32;98243.00;;;27.10;72.23
70921;BME280;58572;48.110;19.838;2023-08-20T08:30:59;98242.84;;;28.53;67.88
70921;BME280;58572;48.110;19.838;2023-08-20T08:33:27;98243.97;;;27.76;72.38
70921;BME280;58572;48.110;19.838;2023-08-20T08:35:54;98235.59;;;28.38;70.69
70921;BME280;58572;48.110;19.838;2023-08-20T08:38:22;98244.47;;;27.89;70.73
70921;BME280;58572;48.110;19.838;2023-08-20T08:40:52;98246.41;;;27.81;71.43
70921;BME280;58572;48.110;19.838;2023-08-20T08:43:20;98244.44;;;27.38;73.09
70921;BME280;58572;48.110;19.838;2023-08-20T08:45:47;98227.50;;;27.60;72.63
70921;BME280;58572;48.110;19.838;2023-08-20T08:48:16;98242.38;;;27.75;71.96
70921;BME280;58572;48.110;19.838;2023-08-20T08:50:45;98238.69;;;27.64;73.44
70921;BME280;58572;48.110;19.838;2023-08-20T08:53:13;98242.28;;;27.61;73.00
70921;BME280;58572;48.110;19.838;2023-08-20T08:55:40;98244.06;;;27.90;72.39
70921;BME280;58572;48.110;19.838;2023-08-20T08:58:09;98246.53;;;28.03;72.01
70921;BME280;58572;48.110;19.838;2023-08-20T09:00:36;98238.59;;;28.08;70.99
70921;BME280;58572;48.110;19.838;2023-08-20T09:03:03;98250.16;;;28.07;69.81
70921;BME280;58572;48.110;19.838;2023-08-20T09:05:31;98248.94;;;28.04;72.75
70921;BME280;58572;48.110;19.838;2023-08-20T09:07:57;98251.53;;;28.31;71.57
70921;BME280;58572;48.110;19.838;2023-08-20T09:10:26;98256.53;;;28.04;73.59
70921;BME280;58572;48.110;19.838;2023-08-20T09:12:54;98245.13;;;28.23;70.64
70921;BME280;58572;48.110;19.838;2023-08-20T09:15:31;98257.56;;;28.36;71.61
70921;BME280;58572;48.110;19.838;2023-08-20T09:18:01;98251.28;;;28.64;75.30
70921;BME280;58572;48.110;19.838;2023-08-20T09:20:35;98252.63;;;29.02;68.68
70921;BME280;58572;48.110;19.838;2023-08-20T09:23:03;98258.19;;;28.84;68.40
70921;BME280;58572;48.110;19.838;2023-08-20T09:25:30;98250.28;;;29.15;67.73
70921;BME280;58572;48.110;19.838;2023-08-20T09:27:57;98245.47;;;29.94;67.67
70921;BME280;58572;48.110;19.838;2023-08-20T09:30:31;98248.72;;;29.67;66.13
70921;BME280;58572;48.110;19.838;2023-08-20T09:33:03;98244.69;;;29.75;63.40
70921;BME280;58572;48.110;19.838;2023-08-20T09:35:31;98243.91;;;29.57;62.50
70921;BME280;58572;48.110;19.838;2023-08-20T09:37:59;98252.28;;;30.17;65.64
70921;BME280;58572;48.110;19.838;2023-08-20T09:40:27;98247.47;;;30.11;62.74
70921;BME280;58572;48.110;19.838;2023-08-20T09:42:54;98245.88;;;29.99;62.78
70921;BME280;58572;48.110;19.838;2023-08-20T09:45:24;98247.50;;;29.68;65.57
70921;BME280;58572;48.110;19.838;2023-08-20T09:47:55;98242.25;;;30.16;65.58
70921;BME280;58572;48.110;19.838;2023-08-20T09:50:23;98232.97;;;31.25;62.95
70921;BME280;58572;48.110;19.838;2023-08-20T09:52:57;98238.91;;;31.86;61.06
70921;BME280;58572;48.110;19.838;2023-08-20T09:55:29;98232.47;;;30.67;62.92
70921;BME280;58572;48.110;19.838;2023-08-20T09:57:58;98240.09;;;30.70;63.97
70921;BME280;58572;48.110;19.838;2023-08-20T10:00:25;98228.84;;;31.40;57.54
70921;BME280;58572;48.110;19.838;2023-08-20T10:02:56;98234.63;;;31.11;61.23
70921;BME280;58572;48.110;19.838;2023-08-20T10:05:25;98242.16;;;30.52;64.18
70921;BME280;58572;48.110;19.838;2023-08-20T10:07:54;98229.91;;;30.94;63.15
70921;BME280;58572;48.110;19.838;2023-08-20T10:10:22;98235.59;;;30.84;64.23
70921;BME280;58572;48.110;19.838;2023-08-20T10:12:50;98233.00;;;31.14;66.75
70921;BME280;58572;48.110;19.838;2023-08-20T10:15:17;98236.38;;;30.88;65.03
70921;BME280;58572;48.110;19.838;2023-08-20T10:17:45;98232.50;;;30.64;66.40
70921;BME280;58572;48.110;19.838;2023-08-20T10:20:15;98234.13;;;30.50;66.66
70921;BME280;58572;48.110;19.838;2023-08-20T10:22:44;98230.03;;;30.76;65.07
70921;BME280;58572;48.110;19.838;2023-08-20T10:25:12;98235.94;;;31.55;63.77
70921;BME280;58572;48.110;19.838;2023-08-20T10:27:48;98229.53;;;30.92;63.51
70921;BME280;58572;48.110;19.838;2023-08-20T10:30:17;98234.94;;;30.51;66.38
70921;BME280;58572;48.110;19.838;2023-08-20T10:32:48;98206.91;;;31.72;60.07
70921;BME280;58572;48.110;19.838;2023-08-20T10:35:24;98231.81;;;31.11;63.42
70921;BME280;58572;48.110;19.838;2023-08-20T10:38:05;98231.03;;;31.15;58.72
70921;BME280;58572;48.110;19.838;2023-08-20T10:40:52;98228.97;;;31.19;58.21
70921;BME280;58572;48.110;19.838;2023-08-20T10:43:27;98201.53;;;31.40;60.18
70921;BME280;58572;48.110;19.838;2023-08-20T10:46:14;98225.28;;;30.56;64.19
70921;BME280;58572;48.110;19.838;2023-08-20T10:48:42;98227.81;;;31.71;62.51
70921;BME280;58572;48.110;19.838;2023-08-20T10:51:12;98208.53;;;32.07;60.21
70921;BME280;58572;48.110;19.838;2023-08-20T10:53:41;98221.97;;;31.48;62.70
70921;BME280;58572;48.110;19.838;2023-08-20T10:56:12;98225.31;;;31.29;61.17
70921;BME280;58572;48.110;19.838;2023-08-20T10:58:45;98221.47;;;30.98;63.11
70921;BME280;58572;48.110;19.838;2023-08-20T11:01:17;98223.63;;;30.76;65.11
70921;BME280;58572;48.110;19.838;2023-08-20T11:03:45;98219.63;;;31.39;62.17
70921;BME280;58572;48.110;19.838;2023-08-20T11:06:16;98217.28;;;32.17;57.19
70921;BME280;58572;48.110;19.838;2023-08-20T11:08:43;98215.34;;;31.17;59.77
70921;BME280;58572;48.110;19.838;2023-08-20T11:11:11;98214.56;;;31.13;62.27
70921;BME280;58572;48.110;19.838;2023-08-20T11:13:38;98214.81;;;30.74;62.17
70921;BME280;58572;48.110;19.838;2023-08-20T11:16:06;98215.59;;;30.78;64.98
70921;BME280;58572;48.110;19.838;2023-08-20T11:18:35;98218.09;;;30.55;61.81
70921;BME280;58572;48.110;19.838;2023-08-20T11:21:03;98209.09;;;30.88;60.05
70921;BME280;58572;48.110;19.838;2023-08-20T11:23:31;98209.09;;;30.88;58.73
70921;BME280;58572;48.110;19.838;2023-08-20T11:25:59;98212.13;;;30.42;62.49
70921;BME280;58572;48.110;19.838;2023-08-20T11:28:27;98210.69;;;31.52;55.48
70921;BME280;58572;48.110;19.838;2023-08-20T11:30:55;98215.09;;;30.94;59.81
70921;BME280;58572;48.110;19.838;2023-08-20T11:33:23;98185.28;;;30.37;60.89
70921;BME280;58572;48.110;19.838;2023-08-20T11:35:51;98210.06;;;30.57;60.02
70921;BME280;58572;48.110;19.838;2023-08-20T11:38:22;98211.59;;;30.72;60.09
70921;BME280;58572;48.110;19.838;2023-08-20T11:40:52;98202.31;;;30.82;63.95
70921;BME280;58572;48.110;19.838;2023-08-20T11:43:19;98199.47;;;31.48;59.66
70921;BME280;58572;48.110;19.838;2023-08-20T11:45:48;98205.09;;;30.89;57.01
70921;BME280;58572;48.110;19.838;2023-08-20T11:48:16;98196.41;;;31.32;54.67
70921;BME280;58572;48.110;19.838;2023-08-20T11:50:44;98194.88;;;31.24;58.24
70921;BME280;58572;48.110;19.838;2023-08-20T11:53:12;98188.47;;;31.64;55.81
70921;BME280;58572;48.110;19.838;2023-08-20T11:55:40;98195.91;;;31.44;58.42
70921;BME280;58572;48.110;19.838;2023-08-20T11:58:13;98188.22;;;31.48;59.16
70921;BME280;58572;48.110;19.838;2023-08-20T12:00:41;98191.72;;;31.63;59.14
70921;BME280;58572;48.110;19.838;2023-08-20T12:03:10;98193.41;;;31.53;58.79
70921;BME280;58572;48.110;19.838;2023-08-20T12:05:41;98181.53;;;31.35;55.13
70921;BME280;58572;48.110;19.838;2023-08-20T12:08:08;98185.22;;;31.25;57.17
70921;BME280;58572;48.110;19.838;2023-08-20T12:10:42;98181.91;;;30.78;61.82
70921;BME280;58572;48.110;19.838;2023-08-20T12:13:10;98173.88;;;30.76;58.67
70921;BME280;58572;48.110;19.838;2023-08-20T12:15:39;98188.06;;;31.18;61.33
70921;BME280;58572;48.110;19.838;2023-08-20T12:18:06;98175.25;;;32.02;58.11
70921;BME280;58572;48.110;19.838;2023-08-20T12:20:35;98179.50;;;31.35;60.14
70921;BME280;58572;48.110;19.838;2023-08-20T12:23:05;98181.97;;;31.30;60.69
70921;BME280;58572;48.110;19.838;2023-08-20T12:25:33;98178.81;;;31.21;57.93
70921;BME280;58572;48.110;19.838;2023-08-20T12:28:01;98180.03;;;31.12;60.48
70921;BME280;58572;48.110;19.838;2023-08-20T12:30:30;98049.31;;;29.69;60.64
70921;BME280;58572;48.110;19.838;2023-08-20T12:32:59;98173.34;;;31.51;58.43
70921;BME280;58572;48.110;19.838;2023-08-20T12:35:26;98170.00;;;31.63;59.31
70921;BME280;58572;48.110;19.838;2023-08-20T12:37:53;98179.84;;;31.44;58.70
70921;BME280;58572;48.110;19.838;2023-08-20T12:40:20;98175.91;;;31.35;59.20
70921;BME280;58572;48.110;19.838;2023-08-20T12:42:48;98173.38;;;31.48;60.17
70921;BME280;58572;48.110;19.838;2023-08-20T12:45:15;98162.63;;;30.80;57.92
70921;BME280;58572;48.110;19.838;2023-08-20T12:47:42;98168.19;;;30.87;63.65
70921;BME280;58572;48.110;19.838;2023-08-20T12:50:11;98159.34;;;30.92;58.40
70921;BME280;58572;48.110;19.838;2023-08-20T12:52:39;98164.19;;;30.88;58.99
70921;BME280;58572;48.110;19.838;2023-08-20T12:55:08;98154.06;;;31.53;56.07
70921;BME280;58572;48.110;19.838;2023-08-20T12:57:36;98151.00;;;31.37;57.59